sensor_id;sensor_type;location;lat;lon;timestamp;temperature;humidity
56046;DHT22;41913;51.030;3.706;2022-12-11T00:00:03;3.20;99.90
56046;DHT22;41913;51.030;3.706;2022-12-11T00:04:58;3.20;99.90
56046;DHT22;41913;51.030;3.706;2022-12-11T00:07:31;3.20;99.90
56046;DHT22;41913;51.030;3.706;2022-12-11T00:09:57;3.30;99.90
56046;DHT22;41913;51.030;3.706;2022-12-11T00:12:25;3.40;99.90
56046;DHT22;41913;51.030;3.706;2022-12-11T00:14:51;3.30;99.90
56046;DHT22;41913;51.030;3.706;2022-12-11T00:17:18;3.30;99.90
56046;DHT22;41913;51.030;3.706;2022-12-11T00:19:44;3.20;99.90
56046;DHT22;41913;51.030;3.706;2022-12-11T00:22:11;3.20;99.90
56046;DHT22;41913;51.030;3.706;2022-12-11T00:24:39;3.20;99.90
56046;DHT22;41913;51.030;3.706;2022-12-11T00:27:05;3.50;99.90
56046;DHT22;41913;51.030;3.706;2022-12-11T00:29:33;3.40;99.90
56046;DHT22;41913;51.030;3.706;2022-12-11T00:34:30;3.30;99.90
56046;DHT22;41913;51.030;3.706;2022-12-11T00:39:28;3.30;99.90
56046;DHT22;41913;51.030;3.706;2022-12-11T00:41:56;3.30;99.90
56046;DHT22;41913;51.030;3.706;2022-12-11T00:44:24;3.20;99.90
56046;DHT22;41913;51.030;3.706;2022-12-11T00:49:18;3.20;99.90
56046;DHT22;41913;51.030;3.706;2022-12-11T00:51:44;3.20;99.90
56046;DHT22;41913;51.030;3.706;2022-12-11T00:54:13;3.40;99.90
56046;DHT22;41913;51.030;3.706;2022-12-11T00:56:39;3.50;99.90
56046;DHT22;41913;51.030;3.706;2022-12-11T00:59:06;3.40;99.90
56046;DHT22;41913;51.030;3.706;2022-12-11T01:01:32;3.20;99.90
56046;DHT22;41913;51.030;3.706;2022-12-11T01:06:26;3.20;99.90
56046;DHT22;41913;51.030;3.706;2022-12-11T01:08:55;3.20;99.90
56046;DHT22;41913;51.030;3.706;2022-12-11T01:11:45;3.20;99.90
56046;DHT22;41913;51.030;3.706;2022-12-11T01:21:40;3.30;99.90
56046;DHT22;41913;51.030;3.706;2022-12-11T01:24:09;3.40;99.90
56046;DHT22;41913;51.030;3.706;2022-12-11T01:26:40;3.50;99.90
56046;DHT22;41913;51.030;3.706;2022-12-11T01:29:07;3.50;99.90
56046;DHT22;41913;51.030;3.706;2022-12-11T01:34:08;3.30;99.90
56046;DHT22;41913;51.030;3.706;2022-12-11T01:36:35;3.20;99.90
56046;DHT22;41913;51.030;3.706;2022-12-11T01:39:04;3.10;99.90
56046;DHT22;41913;51.030;3.706;2022-12-11T01:46:31;3.00;99.90
56046;DHT22;41913;51.030;3.706;2022-12-11T01:48:58;3.00;99.90
56046;DHT22;41913;51.030;3.706;2022-12-11T01:51:28;3.00;99.90
56046;DHT22;41913;51.030;3.706;2022-12-11T01:54:03;3.00;99.90
56046;DHT22;41913;51.030;3.706;2022-12-11T01:56:33;2.90;99.90
56046;DHT22;41913;51.030;3.706;2022-12-11T02:03:59;3.10;99.90
56046;DHT22;41913;51.030;3.706;2022-12-11T02:09:02;3.20;99.90
56046;DHT22;41913;51.030;3.706;2022-12-11T02:11:34;3.10;99.90
56046;DHT22;41913;51.030;3.706;2022-12-11T02:14:07;3.00;99.90
56046;DHT22;41913;51.030;3.706;2022-12-11T02:16:41;3.10;99.90
56046;DHT22;41913;51.030;3.706;2022-12-11T02:19:17;3.20;99.90
56046;DHT22;41913;51.030;3.706;2022-12-11T02:21:52;3.30;99.90
56046;DHT22;41913;51.030;3.706;2022-12-11T02:30:04;3.40;99.90
56046;DHT22;41913;51.030;3.706;2022-12-11T02:37:25;3.20;99.90
56046;DHT22;41913;51.030;3.706;2022-12-11T02:39:55;3.30;99.90
56046;DHT22;41913;51.030;3.706;2022-12-11T02:42:26;3.40;99.90
56046;DHT22;41913;51.030;3.706;2022-12-11T02:44:58;3.30;99.90
56046;DHT22;41913;51.030;3.706;2022-12-11T02:47:28;3.30;99.90
56046;DHT22;41913;51.030;3.706;2022-12-11T02:49:57;3.30;99.90
56046;DHT22;41913;51.030;3.706;2022-12-11T02:52:36;3.40;99.90
56046;DHT22;41913;51.030;3.706;2022-12-11T02:58:08;3.30;99.90
56046;DHT22;41913;51.030;3.706;2022-12-11T03:00:38;3.40;99.90
56046;DHT22;41913;51.030;3.706;2022-12-11T03:03:05;3.50;99.90
56046;DHT22;41913;51.030;3.706;2022-12-11T03:05:33;3.50;99.90
56046;DHT22;41913;51.030;3.706;2022-12-11T03:08:01;3.50;99.90
56046;DHT22;41913;51.030;3.706;2022-12-11T03:10:27;3.30;99.90
56046;DHT22;41913;51.030;3.706;2022-12-11T03:12:54;3.30;99.90
56046;DHT22;41913;51.030;3.706;2022-12-11T03:15:22;3.50;99.90
56046;DHT22;41913;51.030;3.706;2022-12-11T03:20:46;3.30;99.90
56046;DHT22;41913;51.030;3.706;2022-12-11T03:26:02;3.40;99.90
56046;DHT22;41913;51.030;3.706;2022-12-11T03:34:15;3.40;99.90
56046;DHT22;41913;51.030;3.706;2022-12-11T03:36:45;3.50;99.90
56046;DHT22;41913;51.030;3.706;2022-12-11T03:44:21;3.50;99.90
56046;DHT22;41913;51.030;3.706;2022-12-11T03:46:47;3.30;99.90
56046;DHT22;41913;51.030;3.706;2022-12-11T03:52:03;3.20;99.90
56046;DHT22;41913;51.030;3.706;2022-12-11T03:54:34;3.30;99.90
56046;DHT22;41913;51.030;3.706;2022-12-11T03:57:03;3.20;99.90
56046;DHT22;41913;51.030;3.706;2022-12-11T03:59:31;3.30;99.90
56046;DHT22;41913;51.030;3.706;2022-12-11T04:07:30;3.50;99.90
56046;DHT22;41913;51.030;3.706;2022-12-11T04:13:00;3.40;99.90
56046;DHT22;41913;51.030;3.706;2022-12-11T04:15:42;3.40;99.90
56046;DHT22;41913;51.030;3.706;2022-12-11T04:18:08;3.30;99.90
56046;DHT22;41913;51.030;3.706;2022-12-11T04:23:43;3.20;99.90
56046;DHT22;41913;51.030;3.706;2022-12-11T04:26:40;3.30;99.90
56046;DHT22;41913;51.030;3.706;2022-12-11T04:29:11;3.30;99.90
56046;DHT22;41913;51.030;3.706;2022-12-11T04:31:48;3.30;99.90
56046;DHT22;41913;51.030;3.706;2022-12-11T04:34:22;3.30;99.90
56046;DHT22;41913;51.030;3.706;2022-12-11T04:36:49;3.20;99.90
56046;DHT22;41913;51.030;3.706;2022-12-11T04:39:16;3.30;99.90
56046;DHT22;41913;51.030;3.706;2022-12-11T04:41:49;3.20;99.90
56046;DHT22;41913;51.030;3.706;2022-12-11T04:44:15;3.20;99.90
56046;DHT22;41913;51.030;3.706;2022-12-11T04:46:44;3.20;99.90
56046;DHT22;41913;51.030;3.706;2022-12-11T04:49:11;3.30;99.90
56046;DHT22;41913;51.030;3.706;2022-12-11T04:51:37;3.40;99.90
56046;DHT22;41913;51.030;3.706;2022-12-11T04:54:15;3.30;99.90
56046;DHT22;41913;51.030;3.706;2022-12-11T04:56:43;3.10;99.90
56046;DHT22;41913;51.030;3.706;2022-12-11T04:59:10;3.00;99.90
56046;DHT22;41913;51.030;3.706;2022-12-11T05:01:37;3.00;99.90
56046;DHT22;41913;51.030;3.706;2022-12-11T05:04:06;3.10;99.90
56046;DHT22;41913;51.030;3.706;2022-12-11T05:06:50;3.10;99.90
56046;DHT22;41913;51.030;3.706;2022-12-11T05:09:15;3.20;99.90
56046;DHT22;41913;51.030;3.706;2022-12-11T05:11:41;3.20;99.90
56046;DHT22;41913;51.030;3.706;2022-12-11T05:16:59;3.40;99.90
56046;DHT22;41913;51.030;3.706;2022-12-11T05:19:31;3.30;99.90
56046;DHT22;41913;51.030;3.706;2022-12-11T05:24:46;3.10;99.90
56046;DHT22;41913;51.030;3.706;2022-12-11T05:27:11;3.00;99.90
56046;DHT22;41913;51.030;3.706;2022-12-11T05:29:37;3.10;99.90
56046;DHT22;41913;51.030;3.706;2022-12-11T05:32:06;3.10;99.90
56046;DHT22;41913;51.030;3.706;2022-12-11T05:37:03;3.20;99.90
56046;DHT22;41913;51.030;3.706;2022-12-11T05:39:30;3.10;99.90
56046;DHT22;41913;51.030;3.706;2022-12-11T05:41:58;3.00;99.90
56046;DHT22;41913;51.030;3.706;2022-12-11T05:46:57;3.10;99.90
56046;DHT22;41913;51.030;3.706;2022-12-11T05:49:23;3.10;99.90
56046;DHT22;41913;51.030;3.706;2022-12-11T05:51:52;3.00;99.90
56046;DHT22;41913;51.030;3.706;2022-12-11T05:56:50;3.00;99.90
56046;DHT22;41913;51.030;3.706;2022-12-11T06:04:17;3.10;99.90
56046;DHT22;41913;51.030;3.706;2022-12-11T06:06:43;3.10;99.90
56046;DHT22;41913;51.030;3.706;2022-12-11T06:09:15;3.10;99.90
56046;DHT22;41913;51.030;3.706;2022-12-11T06:11:44;3.10;99.90
56046;DHT22;41913;51.030;3.706;2022-12-11T06:16:41;3.10;99.90
56046;DHT22;41913;51.030;3.706;2022-12-11T06:19:25;3.10;99.90
56046;DHT22;41913;51.030;3.706;2022-12-11T06:21:51;3.10;99.90
56046;DHT22;41913;51.030;3.706;2022-12-11T06:24:19;3.10;99.90
56046;DHT22;41913;51.030;3.706;2022-12-11T06:26:47;3.10;99.90
56046;DHT22;41913;51.030;3.706;2022-12-11T06:29:13;3.10;99.90
56046;DHT22;41913;51.030;3.706;2022-12-11T06:31:39;3.00;99.90
56046;DHT22;41913;51.030;3.706;2022-12-11T06:34:04;3.00;99.90
56046;DHT22;41913;51.030;3.706;2022-12-11T06:36:31;3.20;99.90
56046;DHT22;41913;51.030;3.706;2022-12-11T06:38:57;3.20;99.90
56046;DHT22;41913;51.030;3.706;2022-12-11T06:41:24;3.30;99.90
56046;DHT22;41913;51.030;3.706;2022-12-11T06:43:50;3.30;99.90
56046;DHT22;41913;51.030;3.706;2022-12-11T06:46:19;3.40;99.90
56046;DHT22;41913;51.030;3.706;2022-12-11T06:48:45;3.30;99.90
56046;DHT22;41913;51.030;3.706;2022-12-11T06:51:11;3.20;99.90
56046;DHT22;41913;51.030;3.706;2022-12-11T06:53:39;3.30;99.90
56046;DHT22;41913;51.030;3.706;2022-12-11T06:56:11;3.20;99.90
56046;DHT22;41913;51.030;3.706;2022-12-11T06:58:37;3.20;99.90
56046;DHT22;41913;51.030;3.706;2022-12-11T07:01:13;3.30;99.90
56046;DHT22;41913;51.030;3.706;2022-12-11T07:03:39;3.40;99.90
56046;DHT22;41913;51.030;3.706;2022-12-11T07:06:04;3.30;99.90
56046;DHT22;41913;51.030;3.706;2022-12-11T07:08:30;3.20;99.90
56046;DHT22;41913;51.030;3.706;2022-12-11T07:11:03;3.10;99.90
56046;DHT22;41913;51.030;3.706;2022-12-11T07:13:31;3.10;99.90
56046;DHT22;41913;51.030;3.706;2022-12-11T07:15:59;3.10;99.90
56046;DHT22;41913;51.030;3.706;2022-12-11T07:18:32;3.10;99.90
56046;DHT22;41913;51.030;3.706;2022-12-11T07:20:59;3.00;99.90
56046;DHT22;41913;51.030;3.706;2022-12-11T07:23:28;3.10;99.90
56046;DHT22;41913;51.030;3.706;2022-12-11T07:25:55;3.30;99.90
56046;DHT22;41913;51.030;3.706;2022-12-11T07:28:26;3.40;99.90
56046;DHT22;41913;51.030;3.706;2022-12-11T07:30:52;3.40;99.90
56046;DHT22;41913;51.030;3.706;2022-12-11T07:33:19;3.40;99.90
56046;DHT22;41913;51.030;3.706;2022-12-11T07:35:45;3.10;99.90
56046;DHT22;41913;51.030;3.706;2022-12-11T07:38:12;3.00;99.90
56046;DHT22;41913;51.030;3.706;2022-12-11T07:40:39;3.10;99.90
56046;DHT22;41913;51.030;3.706;2022-12-11T07:43:08;3.10;99.90
56046;DHT22;41913;51.030;3.706;2022-12-11T07:45:33;3.00;99.90
56046;DHT22;41913;51.030;3.706;2022-12-11T07:48:00;2.90;99.90
56046;DHT22;41913;51.030;3.706;2022-12-11T07:50:27;3.10;99.90
56046;DHT22;41913;51.030;3.706;2022-12-11T07:52:52;3.10;99.90
56046;DHT22;41913;51.030;3.706;2022-12-11T07:55:20;3.20;99.90
56046;DHT22;41913;51.030;3.706;2022-12-11T07:57:45;3.10;99.90
56046;DHT22;41913;51.030;3.706;2022-12-11T08:00:12;3.20;99.90
56046;DHT22;41913;51.030;3.706;2022-12-11T08:02:39;3.10;99.90
56046;DHT22;41913;51.030;3.706;2022-12-11T08:05:04;3.10;99.90
56046;DHT22;41913;51.030;3.706;2022-12-11T08:07:32;3.20;99.90
56046;DHT22;41913;51.030;3.706;2022-12-11T08:10:04;3.10;99.90
56046;DHT22;41913;51.030;3.706;2022-12-11T08:12:29;3.10;99.90
56046;DHT22;41913;51.030;3.706;2022-12-11T08:14:56;3.00;99.90
56046;DHT22;41913;51.030;3.706;2022-12-11T08:17:23;3.00;99.90
56046;DHT22;41913;51.030;3.706;2022-12-11T08:19:48;3.20;99.90
56046;DHT22;41913;51.030;3.706;2022-12-11T08:22:15;3.10;99.90
56046;DHT22;41913;51.030;3.706;2022-12-11T08:24:40;3.20;99.90
56046;DHT22;41913;51.030;3.706;2022-12-11T08:27:06;3.10;99.90
56046;DHT22;41913;51.030;3.706;2022-12-11T08:29:32;2.90;99.90
56046;DHT22;41913;51.030;3.706;2022-12-11T08:31:58;2.70;99.90
56046;DHT22;41913;51.030;3.706;2022-12-11T08:34:23;2.70;99.90
56046;DHT22;41913;51.030;3.706;2022-12-11T08:36:49;2.70;99.90
56046;DHT22;41913;51.030;3.706;2022-12-11T08:39:15;2.70;99.90
56046;DHT22;41913;51.030;3.706;2022-12-11T08:41:42;2.40;99.90
56046;DHT22;41913;51.030;3.706;2022-12-11T08:44:10;2.50;99.90
56046;DHT22;41913;51.030;3.706;2022-12-11T08:46:36;2.60;99.90
56046;DHT22;41913;51.030;3.706;2022-12-11T08:49:03;2.60;99.90
56046;DHT22;41913;51.030;3.706;2022-12-11T08:51:33;2.80;99.90
56046;DHT22;41913;51.030;3.706;2022-12-11T08:53:59;2.80;99.90
56046;DHT22;41913;51.030;3.706;2022-12-11T08:56:25;3.10;99.90
56046;DHT22;41913;51.030;3.706;2022-12-11T08:58:52;2.90;99.90
56046;DHT22;41913;51.030;3.706;2022-12-11T09:01:22;2.90;99.90
56046;DHT22;41913;51.030;3.706;2022-12-11T09:03:54;2.90;99.90
56046;DHT22;41913;51.030;3.706;2022-12-11T09:06:24;2.80;99.90
56046;DHT22;41913;51.030;3.706;2022-12-11T09:08:52;2.90;99.90
56046;DHT22;41913;51.030;3.706;2022-12-11T09:11:21;3.00;99.90
56046;DHT22;41913;51.030;3.706;2022-12-11T09:16:19;3.00;99.90
56046;DHT22;41913;51.030;3.706;2022-12-11T09:18:48;2.90;99.90
56046;DHT22;41913;51.030;3.706;2022-12-11T09:21:17;3.10;99.90
56046;DHT22;41913;51.030;3.706;2022-12-11T09:23:47;3.20;99.90
56046;DHT22;41913;51.030;3.706;2022-12-11T09:26:16;3.30;99.90
56046;DHT22;41913;51.030;3.706;2022-12-11T09:28:42;3.50;99.90
56046;DHT22;41913;51.030;3.706;2022-12-11T09:31:09;3.50;99.90
56046;DHT22;41913;51.030;3.706;2022-12-11T09:33:34;3.50;99.90
56046;DHT22;41913;51.030;3.706;2022-12-11T09:36:01;3.70;99.90
56046;DHT22;41913;51.030;3.706;2022-12-11T09:38:28;3.70;99.90
56046;DHT22;41913;51.030;3.706;2022-12-11T09:40:54;3.80;99.90
56046;DHT22;41913;51.030;3.706;2022-12-11T09:46:02;3.60;99.90
56046;DHT22;41913;51.030;3.706;2022-12-11T09:48:30;3.50;99.90
56046;DHT22;41913;51.030;3.706;2022-12-11T09:51:00;3.50;99.90
56046;DHT22;41913;51.030;3.706;2022-12-11T09:53:33;3.50;99.90
56046;DHT22;41913;51.030;3.706;2022-12-11T09:56:03;3.60;99.90
56046;DHT22;41913;51.030;3.706;2022-12-11T10:01:20;3.50;99.90
56046;DHT22;41913;51.030;3.706;2022-12-11T10:06:47;3.60;99.90
56046;DHT22;41913;51.030;3.706;2022-12-11T10:12:02;3.60;99.90
56046;DHT22;41913;51.030;3.706;2022-12-11T10:17:10;3.50;99.90
56046;DHT22;41913;51.030;3.706;2022-12-11T10:19:39;3.40;99.90
56046;DHT22;41913;51.030;3.706;2022-12-11T10:22:11;2.90;99.90
56046;DHT22;41913;51.030;3.706;2022-12-11T10:24:44;2.90;99.90
56046;DHT22;41913;51.030;3.706;2022-12-11T10:27:18;3.10;99.90
56046;DHT22;41913;51.030;3.706;2022-12-11T10:29:46;3.20;99.90
56046;DHT22;41913;51.030;3.706;2022-12-11T10:32:23;3.40;99.90
56046;DHT22;41913;51.030;3.706;2022-12-11T10:34:59;3.50;99.90
56046;DHT22;41913;51.030;3.706;2022-12-11T10:37:27;3.60;99.90
56046;DHT22;41913;51.030;3.706;2022-12-11T10:39:53;3.60;99.90
56046;DHT22;41913;51.030;3.706;2022-12-11T10:42:20;3.70;99.90
56046;DHT22;41913;51.030;3.706;2022-12-11T10:44:57;3.50;99.90
56046;DHT22;41913;51.030;3.706;2022-12-11T10:47:23;3.30;99.90
56046;DHT22;41913;51.030;3.706;2022-12-11T10:49:55;3.40;99.90
56046;DHT22;41913;51.030;3.706;2022-12-11T10:52:24;3.50;99.90
56046;DHT22;41913;51.030;3.706;2022-12-11T10:55:37;3.50;99.90
56046;DHT22;41913;51.030;3.706;2022-12-11T10:57:42;3.50;99.90
56046;DHT22;41913;51.030;3.706;2022-12-11T11:00:25;3.40;99.90
56046;DHT22;41913;51.030;3.706;2022-12-11T11:02:55;3.50;99.90
56046;DHT22;41913;51.030;3.706;2022-12-11T11:10:56;3.70;99.90
56046;DHT22;41913;51.030;3.706;2022-12-11T11:13:24;3.70;99.90
56046;DHT22;41913;51.030;3.706;2022-12-11T11:16:01;3.70;99.90
56046;DHT22;41913;51.030;3.706;2022-12-11T11:18:30;3.70;99.90
56046;DHT22;41913;51.030;3.706;2022-12-11T11:20:58;3.90;99.90
56046;DHT22;41913;51.030;3.706;2022-12-11T11:23:25;3.70;99.90
56046;DHT22;41913;51.030;3.706;2022-12-11T11:25:58;3.60;99.90
56046;DHT22;41913;51.030;3.706;2022-12-11T11:30:57;3.60;99.90
56046;DHT22;41913;51.030;3.706;2022-12-11T11:33:23;3.70;99.90
56046;DHT22;41913;51.030;3.706;2022-12-11T11:36:00;3.60;99.90
56046;DHT22;41913;51.030;3.706;2022-12-11T11:38:30;3.60;99.90
56046;DHT22;41913;51.030;3.706;2022-12-11T11:43:46;3.60;99.90
56046;DHT22;41913;51.030;3.706;2022-12-11T11:48:45;3.40;99.90
56046;DHT22;41913;51.030;3.706;2022-12-11T11:51:18;3.60;99.90
56046;DHT22;41913;51.030;3.706;2022-12-11T11:53:47;3.60;99.90
56046;DHT22;41913;51.030;3.706;2022-12-11T11:56:16;3.70;99.90
56046;DHT22;41913;51.030;3.706;2022-12-11T12:01:17;3.50;99.90
56046;DHT22;41913;51.030;3.706;2022-12-11T12:03:46;3.60;99.90
56046;DHT22;41913;51.030;3.706;2022-12-11T12:11:40;3.40;99.90
56046;DHT22;41913;51.030;3.706;2022-12-11T12:27:39;3.50;99.90
56046;DHT22;41913;51.030;3.706;2022-12-11T12:30:08;3.40;99.90
56046;DHT22;41913;51.030;3.706;2022-12-11T12:35:35;3.40;99.90
56046;DHT22;41913;51.030;3.706;2022-12-11T12:43:25;3.60;99.90
56046;DHT22;41913;51.030;3.706;2022-12-11T12:48:20;3.40;99.90
56046;DHT22;41913;51.030;3.706;2022-12-11T12:50:47;3.40;99.90
56046;DHT22;41913;51.030;3.706;2022-12-11T12:53:17;3.70;99.90
56046;DHT22;41913;51.030;3.706;2022-12-11T12:55:44;3.70;99.90
56046;DHT22;41913;51.030;3.706;2022-12-11T13:03:24;3.60;99.90
56046;DHT22;41913;51.030;3.706;2022-12-11T13:06:02;3.60;99.90
56046;DHT22;41913;51.030;3.706;2022-12-11T13:08:39;3.60;99.90
56046;DHT22;41913;51.030;3.706;2022-12-11T13:11:06;3.50;99.90
56046;DHT22;41913;51.030;3.706;2022-12-11T13:13:37;3.40;99.90
56046;DHT22;41913;51.030;3.706;2022-12-11T13:16:07;3.40;99.90
56046;DHT22;41913;51.030;3.706;2022-12-11T13:21:01;3.60;99.90
56046;DHT22;41913;51.030;3.706;2022-12-11T13:23:28;3.60;99.90
56046;DHT22;41913;51.030;3.706;2022-12-11T13:25:57;3.60;99.90
56046;DHT22;41913;51.030;3.706;2022-12-11T13:28:32;3.50;99.90
56046;DHT22;41913;51.030;3.706;2022-12-11T13:33:46;3.50;99.90
56046;DHT22;41913;51.030;3.706;2022-12-11T13:36:22;3.60;99.90
56046;DHT22;41913;51.030;3.706;2022-12-11T13:38:51;3.50;99.90
56046;DHT22;41913;51.030;3.706;2022-12-11T13:41:18;3.60;99.90
56046;DHT22;41913;51.030;3.706;2022-12-11T13:43:45;3.50;99.90
56046;DHT22;41913;51.030;3.706;2022-12-11T13:46:18;3.50;99.90
56046;DHT22;41913;51.030;3.706;2022-12-11T13:48:53;3.50;99.90
56046;DHT22;41913;51.030;3.706;2022-12-11T13:51:24;3.20;99.90
56046;DHT22;41913;51.030;3.706;2022-12-11T13:56:30;3.10;99.90
56046;DHT22;41913;51.030;3.706;2022-12-11T13:58:57;3.20;99.90
56046;DHT22;41913;51.030;3.706;2022-12-11T14:01:24;3.20;99.90
56046;DHT22;41913;51.030;3.706;2022-12-11T14:03:56;3.20;99.90
56046;DHT22;41913;51.030;3.706;2022-12-11T14:06:22;3.00;99.90
56046;DHT22;41913;51.030;3.706;2022-12-11T14:08:49;3.10;99.90
56046;DHT22;41913;51.030;3.706;2022-12-11T14:11:37;3.10;99.90
56046;DHT22;41913;51.030;3.706;2022-12-11T14:14:03;3.20;99.90
56046;DHT22;41913;51.030;3.706;2022-12-11T14:16:32;3.20;99.90
56046;DHT22;41913;51.030;3.706;2022-12-11T14:19:01;3.30;99.90
56046;DHT22;41913;51.030;3.706;2022-12-11T14:21:29;3.30;99.90
56046;DHT22;41913;51.030;3.706;2022-12-11T14:23:56;3.20;99.90
56046;DHT22;41913;51.030;3.706;2022-12-11T14:26:27;3.20;99.90
56046;DHT22;41913;51.030;3.706;2022-12-11T14:28:53;3.30;99.90
56046;DHT22;41913;51.030;3.706;2022-12-11T14:31:35;3.30;99.90
56046;DHT22;41913;51.030;3.706;2022-12-11T14:34:02;3.40;99.90
56046;DHT22;41913;51.030;3.706;2022-12-11T14:36:30;3.40;99.90
56046;DHT22;41913;51.030;3.706;2022-12-11T14:38:59;3.40;99.90
56046;DHT22;41913;51.030;3.706;2022-12-11T14:41:40;3.30;99.90
56046;DHT22;41913;51.030;3.706;2022-12-11T14:44:16;3.20;99.90
56046;DHT22;41913;51.030;3.706;2022-12-11T14:51:49;3.20;99.90
56046;DHT22;41913;51.030;3.706;2022-12-11T14:54:36;3.10;99.90
56046;DHT22;41913;51.030;3.706;2022-12-11T14:57:05;3.20;99.90
56046;DHT22;41913;51.030;3.706;2022-12-11T14:59:40;3.10;99.90
56046;DHT22;41913;51.030;3.706;2022-12-11T15:02:24;3.20;99.90
56046;DHT22;41913;51.030;3.706;2022-12-11T15:05:02;3.10;99.90
56046;DHT22;41913;51.030;3.706;2022-12-11T15:07:29;3.00;99.90
56046;DHT22;41913;51.030;3.706;2022-12-11T15:09:55;3.10;99.90
56046;DHT22;41913;51.030;3.706;2022-12-11T15:12:20;3.20;99.90
56046;DHT22;41913;51.030;3.706;2022-12-11T15:14:47;3.10;99.90
56046;DHT22;41913;51.030;3.706;2022-12-11T15:17:16;3.30;99.90
56046;DHT22;41913;51.030;3.706;2022-12-11T15:19:47;3.30;99.90
56046;DHT22;41913;51.030;3.706;2022-12-11T15:22:13;3.30;99.90
56046;DHT22;41913;51.030;3.706;2022-12-11T15:24:42;3.30;99.90
56046;DHT22;41913;51.030;3.706;2022-12-11T15:29:54;3.20;99.90
56046;DHT22;41913;51.030;3.706;2022-12-11T15:32:21;3.30;99.90
56046;DHT22;41913;51.030;3.706;2022-12-11T15:34:51;3.20;99.90
56046;DHT22;41913;51.030;3.706;2022-12-11T15:37:21;3.20;99.90
56046;DHT22;41913;51.030;3.706;2022-12-11T15:39:51;3.10;99.90
56046;DHT22;41913;51.030;3.706;2022-12-11T15:42:22;3.10;99.90
56046;DHT22;41913;51.030;3.706;2022-12-11T15:44:52;3.00;99.90
56046;DHT22;41913;51.030;3.706;2022-12-11T15:47:24;3.00;99.90
56046;DHT22;41913;51.030;3.706;2022-12-11T15:50:10;3.00;99.90
56046;DHT22;41913;51.030;3.706;2022-12-11T15:52:40;3.10;99.90
56046;DHT22;41913;51.030;3.706;2022-12-11T15:55:06;3.20;99.90
56046;DHT22;41913;51.030;3.706;2022-12-11T15:57:35;3.30;99.90
56046;DHT22;41913;51.030;3.706;2022-12-11T16:00:02;3.30;99.90
56046;DHT22;41913;51.030;3.706;2022-12-11T16:02:29;3.20;99.90
56046;DHT22;41913;51.030;3.706;2022-12-11T16:04:54;3.10;99.90
56046;DHT22;41913;51.030;3.706;2022-12-11T16:07:21;3.00;99.90
56046;DHT22;41913;51.030;3.706;2022-12-11T16:09:47;3.10;99.90
56046;DHT22;41913;51.030;3.706;2022-12-11T16:12:13;3.00;99.90
56046;DHT22;41913;51.030;3.706;2022-12-11T16:14:39;2.90;99.90
56046;DHT22;41913;51.030;3.706;2022-12-11T16:17:05;3.00;99.90
56046;DHT22;41913;51.030;3.706;2022-12-11T16:19:38;2.90;99.90
56046;DHT22;41913;51.030;3.706;2022-12-11T16:22:06;2.80;99.90
56046;DHT22;41913;51.030;3.706;2022-12-11T16:24:34;2.80;99.90
56046;DHT22;41913;51.030;3.706;2022-12-11T16:27:04;2.80;99.90
56046;DHT22;41913;51.030;3.706;2022-12-11T16:29:37;3.00;99.90
56046;DHT22;41913;51.030;3.706;2022-12-11T16:32:04;2.80;99.90
56046;DHT22;41913;51.030;3.706;2022-12-11T16:34:33;2.80;99.90
56046;DHT22;41913;51.030;3.706;2022-12-11T16:36:59;2.90;99.90
56046;DHT22;41913;51.030;3.706;2022-12-11T16:39:25;2.70;99.90
56046;DHT22;41913;51.030;3.706;2022-12-11T16:41:54;2.40;99.90
56046;DHT22;41913;51.030;3.706;2022-12-11T16:44:25;2.50;99.90
56046;DHT22;41913;51.030;3.706;2022-12-11T16:46:53;2.40;99.90
56046;DHT22;41913;51.030;3.706;2022-12-11T16:49:23;2.30;99.90
56046;DHT22;41913;51.030;3.706;2022-12-11T16:51:56;2.30;99.90
56046;DHT22;41913;51.030;3.706;2022-12-11T16:54:23;2.30;99.90
56046;DHT22;41913;51.030;3.706;2022-12-11T16:56:48;2.30;99.90
56046;DHT22;41913;51.030;3.706;2022-12-11T16:59:14;2.30;99.90
56046;DHT22;41913;51.030;3.706;2022-12-11T17:01:40;2.30;99.90
56046;DHT22;41913;51.030;3.706;2022-12-11T17:04:05;2.30;99.90
56046;DHT22;41913;51.030;3.706;2022-12-11T17:06:33;2.50;99.90
56046;DHT22;41913;51.030;3.706;2022-12-11T17:11:28;2.70;99.90
56046;DHT22;41913;51.030;3.706;2022-12-11T17:13:56;2.60;99.90
56046;DHT22;41913;51.030;3.706;2022-12-11T17:16:22;2.50;99.90
56046;DHT22;41913;51.030;3.706;2022-12-11T17:18:51;2.40;99.90
56046;DHT22;41913;51.030;3.706;2022-12-11T17:21:17;2.40;99.90
56046;DHT22;41913;51.030;3.706;2022-12-11T17:23:44;2.30;99.90
56046;DHT22;41913;51.030;3.706;2022-12-11T17:26:11;2.10;99.90
56046;DHT22;41913;51.030;3.706;2022-12-11T17:28:36;2.10;99.90
56046;DHT22;41913;51.030;3.706;2022-12-11T17:31:03;2.00;99.90
56046;DHT22;41913;51.030;3.706;2022-12-11T17:33:29;2.10;99.90
56046;DHT22;41913;51.030;3.706;2022-12-11T17:35:59;2.00;99.90
56046;DHT22;41913;51.030;3.706;2022-12-11T17:38:25;2.00;99.90
56046;DHT22;41913;51.030;3.706;2022-12-11T17:40:50;2.00;99.90
56046;DHT22;41913;51.030;3.706;2022-12-11T17:43:16;1.90;99.90
56046;DHT22;41913;51.030;3.706;2022-12-11T17:45:47;1.90;99.90
56046;DHT22;41913;51.030;3.706;2022-12-11T17:48:12;1.80;99.90
56046;DHT22;41913;51.030;3.706;2022-12-11T17:50:45;1.90;99.90
56046;DHT22;41913;51.030;3.706;2022-12-11T17:53:14;1.80;99.90
56046;DHT22;41913;51.030;3.706;2022-12-11T17:55:46;1.70;99.90
56046;DHT22;41913;51.030;3.706;2022-12-11T17:58:18;1.70;99.90
56046;DHT22;41913;51.030;3.706;2022-12-11T18:00:48;1.80;99.90
56046;DHT22;41913;51.030;3.706;2022-12-11T18:03:14;1.80;99.90
56046;DHT22;41913;51.030;3.706;2022-12-11T18:05:45;1.70;99.90
56046;DHT22;41913;51.030;3.706;2022-12-11T18:08:20;1.90;99.90
56046;DHT22;41913;51.030;3.706;2022-12-11T18:10:45;1.90;99.90
56046;DHT22;41913;51.030;3.706;2022-12-11T18:13:11;2.10;99.90
56046;DHT22;41913;51.030;3.706;2022-12-11T18:15:37;1.90;99.90
56046;DHT22;41913;51.030;3.706;2022-12-11T18:18:03;2.00;99.90
56046;DHT22;41913;51.030;3.706;2022-12-11T18:20:31;2.10;99.90
56046;DHT22;41913;51.030;3.706;2022-12-11T18:22:56;2.10;99.90
56046;DHT22;41913;51.030;3.706;2022-12-11T18:25:22;2.10;99.90
56046;DHT22;41913;51.030;3.706;2022-12-11T18:27:52;2.20;99.90
56046;DHT22;41913;51.030;3.706;2022-12-11T18:30:20;2.30;99.90
56046;DHT22;41913;51.030;3.706;2022-12-11T18:32:47;2.40;99.90
56046;DHT22;41913;51.030;3.706;2022-12-11T18:35:13;2.40;99.90
56046;DHT22;41913;51.030;3.706;2022-12-11T18:37:38;2.40;99.90
56046;DHT22;41913;51.030;3.706;2022-12-11T18:40:05;2.40;99.90
56046;DHT22;41913;51.030;3.706;2022-12-11T18:42:31;2.10;99.90
56046;DHT22;41913;51.030;3.706;2022-12-11T18:44:58;2.20;99.90
56046;DHT22;41913;51.030;3.706;2022-12-11T18:47:25;2.30;99.90
56046;DHT22;41913;51.030;3.706;2022-12-11T18:49:52;2.30;99.90
56046;DHT22;41913;51.030;3.706;2022-12-11T18:52:19;2.20;99.90
56046;DHT22;41913;51.030;3.706;2022-12-11T18:54:46;2.20;99.90
56046;DHT22;41913;51.030;3.706;2022-12-11T18:57:13;2.20;99.90
56046;DHT22;41913;51.030;3.706;2022-12-11T18:59:38;2.20;99.90